Time;durP1;ratioP1;P1;durP2;ratioP2;P2;SDS_P1;SDS_P2;PMS_P1;PMS_P2;Temp;Humidity;BMP_temperature;BMP_pressure;BME280_temperature;BME280_humidity;BME280_pressure;Samples;Min_cycle;Max_cycle;Signal;HPM_P1;HPM_P2
2022/04/30 00:00:48;;;;;;;8.20;3.75;;;7.80;99.90;;;;;;12383516;28;20489;-37
2022/04/30 00:06:50;;;;;;;8.40;4.22;;;7.80;99.90;;;;;;12373492;28;20042;-37
2022/04/30 00:12:52;;;;;;;7.80;3.85;;;7.60;99.90;;;;;;12380370;28;20069;-37
2022/04/30 00:18:56;;;;;;;9.88;4.00;;;7.40;99.90;;;;;;12377739;28;20517;-36
2022/04/30 00:24:58;;;;;;;10.10;3.90;;;7.40;99.90;;;;;;12385639;28;20886;-38
2022/04/30 00:31:00;;;;;;;9.00;4.00;;;7.40;99.90;;;;;;12382671;28;20104;-37
2022/04/30 00:37:03;;;;;;;7.88;4.22;;;7.30;99.90;;;;;;12374165;28;20046;-36
2022/04/30 00:43:05;;;;;;;7.30;4.25;;;7.30;99.90;;;;;;12377459;28;20043;-37
2022/04/30 00:49:08;;;;;;;10.95;4.60;;;7.20;99.90;;;;;;12374501;28;20081;-36
2022/04/30 00:55:12;;;;;;;8.52;4.65;;;6.90;99.90;;;;;;12374184;28;20042;-38
2022/04/30 01:01:14;;;;;;;8.57;4.43;;;6.90;99.90;;;;;;12381836;28;20046;-37
2022/04/30 01:07:17;;;;;;;9.02;4.65;;;7.30;99.90;;;;;;12375614;28;20386;-38
2022/04/30 01:13:20;;;;;;;9.13;4.60;;;7.20;99.90;;;;;;12379054;28;20073;-36
2022/04/30 01:19:23;;;;;;;9.40;4.65;;;7.20;99.90;;;;;;12370437;28;20162;-36
2022/04/30 01:25:25;;;;;;;8.10;4.53;;;6.90;99.90;;;;;;12373491;28;20062;-36
2022/04/30 01:37:50;;;;;;;8.05;4.22;;;7.10;99.90;;;;;;12375900;28;20086;-37
2022/04/30 01:43:52;;;;;;;10.25;5.00;;;7.00;99.90;;;;;;12376070;28;20080;-37
2022/04/30 01:49:54;;;;;;;7.45;4.80;;;7.20;99.90;;;;;;12374230;28;20050;-37
2022/04/30 01:55:56;;;;;;;13.02;5.28;;;7.20;99.90;;;;;;12380323;28;20088;-37
2022/04/30 02:02:01;;;;;;;9.68;5.43;;;6.90;99.90;;;;;;12371882;28;20104;-38
2022/04/30 02:08:08;;;;;;;9.52;5.13;;;6.80;99.90;;;;;;12374661;28;20050;-37
2022/04/30 02:14:14;;;;;;;7.60;4.65;;;7.00;99.90;;;;;;12376350;28;20426;-37
2022/04/30 02:20:24;;;;;;;11.98;5.45;;;6.90;99.90;;;;;;12374884;28;20082;-36
2022/04/30 02:26:27;;;;;;;11.35;4.78;;;7.00;99.90;;;;;;12371679;28;20058;-36
2022/04/30 02:32:39;;;;;;;8.43;5.10;;;7.20;99.90;;;;;;12372781;28;20061;-37
2022/04/30 02:38:41;;;;;;;10.07;4.60;;;7.20;99.90;;;;;;12376980;28;20498;-36
2022/04/30 02:44:43;;;;;;;8.82;4.75;;;7.20;99.90;;;;;;12376247;28;20086;-36
2022/04/30 02:50:46;;;;;;;13.27;5.43;;;7.20;99.90;;;;;;12378631;28;20141;-37
2022/04/30 02:56:48;;;;;;;11.35;5.43;;;7.10;99.90;;;;;;12380398;28;20116;-36
2022/04/30 03:02:50;;;;;;;15.77;5.43;;;7.10;99.90;;;;;;12382285;28;20050;-37
2022/04/30 03:08:52;;;;;;;17.08;5.95;;;6.90;99.90;;;;;;12387916;28;20410;-36
2022/04/30 03:14:54;;;;;;;15.38;5.72;;;6.80;99.90;;;;;;12380586;28;20054;-37
2022/04/30 03:27:18;;;;;;;9.95;5.18;;;6.90;99.90;;;;;;12382215;28;20089;-37
2022/04/30 03:33:20;;;;;;;9.35;5.20;;;7.00;99.90;;;;;;12379349;28;20089;-37
2022/04/30 03:39:22;;;;;;;8.95;5.18;;;7.00;99.90;;;;;;12383165;28;20137;-36
2022/04/30 03:45:24;;;;;;;9.00;4.85;;;7.00;99.90;;;;;;12383575;28;20054;-37
2022/04/30 03:51:26;;;;;;;9.70;5.13;;;7.00;99.90;;;;;;12383474;28;20105;-37
2022/04/30 03:57:28;;;;;;;10.30;5.38;;;6.80;99.90;;;;;;12381399;28;20050;-37
2022/04/30 04:03:30;;;;;;;10.45;5.55;;;6.90;99.90;;;;;;12381374;28;20058;-38
2022/04/30 04:09:33;;;;;;;7.30;5.28;;;7.00;99.90;;;;;;12381223;28;20054;-36
2022/04/30 04:21:56;;;;;;;13.55;5.95;;;6.90;99.90;;;;;;12381683;28;20046;-37
2022/04/30 04:27:58;;;;;;;12.18;5.72;;;6.90;99.90;;;;;;12376846;28;20081;-36
2022/04/30 04:34:00;;;;;;;10.13;5.95;;;7.00;99.90;;;;;;12376796;28;20104;-35
2022/04/30 04:40:03;;;;;;;16.40;6.40;;;7.00;99.90;;;;;;12376267;28;20059;-37
2022/04/30 04:46:06;;;;;;;11.60;6.47;;;7.00;99.90;;;;;;12330924;28;20093;-37
2022/04/30 04:52:09;;;;;;;10.82;6.25;;;7.00;99.90;;;;;;12349977;28;20054;-36
2022/04/30 04:58:12;;;;;;;9.63;6.10;;;7.00;99.90;;;;;;12382764;28;20050;-36
2022/04/30 05:04:16;;;;;;;13.03;5.50;;;7.10;99.90;;;;;;12381901;28;20054;-37
2022/04/30 05:10:19;;;;;;;10.57;5.80;;;7.10;99.90;;;;;;12378586;28;20046;-36
2022/04/30 05:16:21;;;;;;;9.18;5.40;;;7.30;99.90;;;;;;12384712;28;20141;-35
2022/04/30 05:22:24;;;;;;;13.25;6.22;;;7.20;99.90;;;;;;12384482;28;20053;-36
2022/04/30 05:28:26;;;;;;;13.50;5.72;;;7.30;99.90;;;;;;12383888;28;20058;-36
2022/04/30 05:34:31;;;;;;;11.15;5.18;;;7.20;99.90;;;;;;12379234;28;20053;-36
2022/04/30 05:40:34;;;;;;;11.45;5.70;;;7.40;99.90;;;;;;12377636;28;20447;-37
2022/04/30 05:46:37;;;;;;;9.52;4.93;;;7.30;99.90;;;;;;12381386;28;20051;-37
2022/04/30 05:52:39;;;;;;;13.02;5.75;;;7.40;99.90;;;;;;12379532;28;20490;-36
2022/04/30 05:58:43;;;;;;;12.25;5.38;;;7.30;99.90;;;;;;12380655;28;20050;-36
2022/04/30 06:04:46;;;;;;;10.40;5.10;;;7.20;99.90;;;;;;12372185;28;20058;-35
2022/04/30 06:10:49;;;;;;;10.23;5.40;;;7.40;99.90;;;;;;12377216;28;20132;-36
2022/04/30 06:16:52;;;;;;;13.05;5.72;;;7.60;99.90;;;;;;12380053;28;20074;-36
2022/04/30 06:22:54;;;;;;;11.70;5.28;;;7.60;99.90;;;;;;12379505;28;20062;-37
2022/04/30 06:28:57;;;;;;;11.77;5.20;;;7.60;99.90;;;;;;12381180;28;20046;-37
2022/04/30 06:34:59;;;;;;;13.85;6.13;;;7.50;99.90;;;;;;12380689;28;20057;-36
2022/04/30 06:41:02;;;;;;;11.68;5.47;;;7.80;99.90;;;;;;12379159;28;20046;-37
2022/04/30 06:47:06;;;;;;;12.43;5.22;;;7.80;99.90;;;;;;12379568;28;20051;-36
2022/04/30 06:59:36;;;;;;;12.82;5.70;;;7.80;99.90;;;;;;12376855;28;20247;-37
2022/04/30 07:05:39;;;;;;;13.80;5.88;;;7.60;99.90;;;;;;12374129;28;20086;-38
2022/04/30 07:11:42;;;;;;;12.03;6.07;;;7.80;99.90;;;;;;12380109;28;20065;-37
2022/04/30 07:17:46;;;;;;;10.27;5.82;;;7.90;99.90;;;;;;12383551;28;20050;-35
2022/04/30 07:23:50;;;;;;;16.40;5.30;;;8.00;99.90;;;;;;12371882;28;20437;-37
2022/04/30 07:29:52;;;;;;;9.15;5.07;;;8.30;99.90;;;;;;12375924;28;20582;-36
2022/04/30 07:35:55;;;;;;;7.68;4.80;;;8.40;99.90;;;;;;12378210;28;20105;-37
2022/04/30 07:41:58;;;;;;;10.77;4.32;;;8.50;99.90;;;;;;12382017;28;20051;-36
2022/04/30 07:48:01;;;;;;;9.90;4.45;;;8.50;99.90;;;;;;12387997;28;20100;-35
2022/04/30 07:54:04;;;;;;;12.65;4.75;;;8.70;99.90;;;;;;12386594;28;20042;-36
2022/04/30 08:00:08;;;;;;;8.27;4.35;;;8.60;99.90;;;;;;12381275;28;20156;-36
2022/04/30 08:06:10;;;;;;;9.73;4.50;;;8.70;99.90;;;;;;12383071;28;20058;-36
2022/04/30 08:12:13;;;;;;;12.07;4.65;;;8.70;99.90;;;;;;12388420;28;20050;-36
2022/04/30 08:18:15;;;;;;;8.38;4.30;;;8.80;99.90;;;;;;12384176;28;20085;-35
2022/04/30 08:24:18;;;;;;;11.23;4.72;;;8.90;99.90;;;;;;12385791;28;20054;-37
2022/04/30 08:30:21;;;;;;;8.95;4.13;;;9.20;99.90;;;;;;12381651;28;20051;-36
2022/04/30 08:36:24;;;;;;;10.60;3.72;;;9.20;99.90;;;;;;12385343;28;20057;-36
2022/04/30 08:42:26;;;;;;;10.93;4.45;;;9.40;99.90;;;;;;12385811;28;20058;-36
2022/04/30 08:48:30;;;;;;;10.15;4.43;;;9.60;99.90;;;;;;12382399;28;20584;-37
2022/04/30 08:54:33;;;;;;;8.03;4.43;;;9.70;99.90;;;;;;12383615;28;20050;-37
2022/04/30 09:00:45;;;;;;;8.35;5.28;;;9.80;99.90;;;;;;12386073;28;20104;-37
2022/04/30 09:06:50;;;;;;;17.50;6.78;;;9.90;99.90;;;;;;12388821;28;20181;-37
2022/04/30 09:12:53;;;;;;;11.23;5.60;;;10.00;99.90;;;;;;12383901;28;20115;-37
2022/04/30 09:19:03;;;;;;;12.68;5.60;;;10.10;99.90;;;;;;12383799;28;20057;-36
2022/04/30 09:25:12;;;;;;;10.05;5.70;;;10.20;99.90;;;;;;12387884;28;20078;-38
2022/04/30 09:31:34;;;;;;;7.22;4.93;;;10.20;99.90;;;;;;12378714;28;20088;-36
2022/04/30 09:37:53;;;;;;;9.32;4.75;;;10.10;99.90;;;;;;12386302;28;20062;-36
2022/04/30 09:44:04;;;;;;;6.03;3.83;;;10.10;99.90;;;;;;12385291;28;20073;-36
2022/04/30 09:56:40;;;;;;;7.53;4.10;;;10.30;99.90;;;;;;12383713;28;20131;-36
2022/04/30 10:02:46;;;;;;;8.35;4.43;;;10.50;99.90;;;;;;12381548;28;20050;-38
2022/04/30 10:08:50;;;;;;;10.02;4.20;;;10.30;99.90;;;;;;12380505;28;20055;-37
2022/04/30 10:14:57;;;;;;;9.85;4.25;;;10.40;99.90;;;;;;12384329;28;20061;-37
2022/04/30 10:21:00;;;;;;;8.88;3.83;;;10.50;99.90;;;;;;12375393;28;20046;-36
2022/04/30 10:27:03;;;;;;;6.78;3.80;;;10.40;99.90;;;;;;12375696;28;20062;-37
2022/04/30 10:33:07;;;;;;;9.93;3.97;;;10.70;99.90;;;;;;12378576;28;20133;-36
2022/04/30 10:39:19;;;;;;;6.22;3.78;;;10.70;99.90;;;;;;12377029;28;20054;-39
2022/04/30 10:45:29;;;;;;;6.30;3.53;;;10.90;99.90;;;;;;12377219;28;20046;-36
2022/04/30 10:51:42;;;;;;;5.18;3.33;;;11.00;99.90;;;;;;12374868;28;20120;-36
2022/04/30 10:57:46;;;;;;;8.32;3.88;;;10.90;99.90;;;;;;12385700;28;20050;-38
2022/04/30 11:03:50;;;;;;;8.35;3.80;;;11.00;99.90;;;;;;12375582;28;20112;-36
2022/04/30 11:09:52;;;;;;;7.40;4.38;;;11.10;99.90;;;;;;12378428;28;20108;-38
2022/04/30 11:15:58;;;;;;;6.47;3.75;;;11.10;99.90;;;;;;12381644;28;20046;-37
2022/04/30 11:22:00;;;;;;;6.63;4.03;;;11.20;99.90;;;;;;12390001;28;20081;-40
2022/04/30 11:28:10;;;;;;;9.02;4.47;;;11.10;99.90;;;;;;12381768;28;20723;-36
2022/04/30 11:34:15;;;;;;;9.65;4.18;;;11.20;99.90;;;;;;12384698;28;20133;-37
2022/04/30 11:40:21;;;;;;;5.72;4.15;;;11.30;99.90;;;;;;12383266;28;20054;-36
2022/04/30 11:46:24;;;;;;;10.95;4.40;;;11.80;99.90;;;;;;12385206;28;20141;-38
2022/04/30 11:52:26;;;;;;;9.15;4.05;;;12.10;99.90;;;;;;12386071;28;20224;-37
2022/04/30 11:58:40;;;;;;;6.80;3.53;;;12.40;99.90;;;;;;12389250;28;20482;-36
2022/04/30 12:04:43;;;;;;;;;;;12.40;99.90;;;;;;12388602;28;20050;-39
2022/04/30 12:10:55;;;;;;;6.72;4.15;;;12.10;99.90;;;;;;12384848;28;20380;-38
2022/04/30 12:17:00;;;;;;;;;;;11.80;99.90;;;;;;12390247;28;20069;-37
2022/04/30 12:29:28;;;;;;;8.50;4.05;;;11.70;99.90;;;;;;12383658;28;20069;-38
2022/04/30 12:35:40;;;;;;;7.85;3.80;;;11.80;99.90;;;;;;12382062;28;20149;-38
2022/04/30 12:41:43;;;;;;;6.18;3.55;;;11.80;99.90;;;;;;12383323;28;20050;-39
2022/04/30 12:47:45;;;;;;;6.43;3.50;;;12.10;99.90;;;;;;12385937;28;20054;-37
2022/04/30 12:53:48;;;;;;;4.78;3.53;;;12.40;99.90;;;;;;12381762;28;20564;-38
2022/04/30 12:59:53;;;;;;;7.55;3.58;;;12.40;99.90;;;;;;12382054;28;20054;-38
2022/04/30 13:05:57;;;;;;;6.50;2.90;;;12.50;99.90;;;;;;12385768;28;20608;-40
2022/04/30 13:18:23;;;;;;;8.07;3.53;;;13.00;99.90;;;;;;12378824;28;20467;-37
2022/04/30 13:24:26;;;;;;;9.10;3.38;;;13.40;99.90;;;;;;12375616;28;20058;-38
2022/04/30 13:30:32;;;;;;;8.35;3.55;;;13.50;99.90;;;;;;12370475;28;20082;-38
2022/04/30 13:36:37;;;;;;;9.18;3.35;;;13.40;99.90;;;;;;12373568;28;20490;-37
2022/04/30 13:42:41;;;;;;;8.60;3.20;;;12.90;99.90;;;;;;12380711;28;20081;-37
2022/04/30 13:48:44;;;;;;;8.77;3.67;;;12.70;99.90;;;;;;12384205;28;20061;-38
2022/04/30 13:54:46;;;;;;;5.63;2.70;;;12.70;99.90;;;;;;12380724;28;20042;-37
2022/04/30 14:00:52;;;;;;;6.70;2.90;;;12.70;99.90;;;;;;12378812;28;20058;-37
2022/04/30 14:07:04;;;;;;;3.88;2.55;;;12.80;99.90;;;;;;12379599;28;20038;-38
2022/04/30 14:19:28;;;;;;;4.70;2.30;;;13.80;99.90;;;;;;12382375;28;20498;-38
2022/04/30 14:25:31;;;;;;;7.55;3.20;;;13.90;99.90;;;;;;12380997;28;20057;-37
2022/04/30 14:31:33;;;;;;;8.02;3.65;;;13.80;99.90;;;;;;12381322;28;20046;-36
2022/04/30 14:37:36;;;;;;;5.13;2.97;;;13.30;99.90;;;;;;12385875;28;20061;-37
2022/04/30 14:43:40;;;;;;;6.38;3.15;;;13.00;99.90;;;;;;12386764;28;20050;-36
2022/04/30 14:49:44;;;;;;;5.72;3.20;;;12.90;99.90;;;;;;12384279;28;20130;-37
2022/04/30 14:55:51;;;;;;;8.30;3.40;;;12.80;99.90;;;;;;12382791;28;20050;-39
2022/04/30 15:01:53;;;;;;;8.98;2.90;;;12.60;99.90;;;;;;12384862;28;20479;-38
2022/04/30 15:08:03;;;;;;;7.35;2.95;;;12.90;99.90;;;;;;12376926;28;20100;-36
2022/04/30 15:14:05;;;;;;;8.38;2.80;;;13.40;99.90;;;;;;12382992;28;20062;-38
2022/04/30 15:20:08;;;;;;;4.53;2.80;;;13.60;99.90;;;;;;12378531;28;20054;-38
2022/04/30 15:26:12;;;;;;;7.90;2.47;;;13.50;99.90;;;;;;12351121;28;20457;-38
2022/04/30 15:32:14;;;;;;;5.47;2.72;;;13.50;99.90;;;;;;12375074;28;20149;-37
2022/04/30 15:38:17;;;;;;;6.22;2.60;;;13.30;99.90;;;;;;12376407;28;20050;-38
2022/04/30 15:44:20;;;;;;;6.53;3.08;;;13.00;99.90;;;;;;12382437;28;20491;-36
2022/04/30 15:56:44;;;;;;;6.93;2.80;;;13.10;99.90;;;;;;12378548;28;20453;-36
2022/04/30 16:02:47;;;;;;;3.58;2.75;;;13.00;99.90;;;;;;12388013;28;20180;-37
2022/04/30 16:08:52;;;;;;;5.18;2.40;;;12.90;99.90;;;;;;12391054;28;20054;-37
2022/04/30 16:14:56;;;;;;;4.30;2.35;;;12.90;99.90;;;;;;12375696;28;20050;-36
2022/04/30 16:20:59;;;;;;;5.43;2.60;;;13.50;99.90;;;;;;12389646;28;20070;-38
2022/04/30 16:27:06;;;;;;;7.90;2.58;;;13.60;99.90;;;;;;12387467;28;20407;-37
2022/04/30 16:33:15;;;;;;;7.57;2.55;;;13.60;99.90;;;;;;12391112;28;20161;-36
2022/04/30 16:39:22;;;;;;;5.03;2.50;;;13.10;99.90;;;;;;12385923;28;20510;-36
2022/04/30 16:45:27;;;;;;;13.02;4.72;;;12.90;99.90;;;;;;12384282;28;20078;-37
2022/04/30 16:57:58;;;;;;;5.97;3.03;;;12.60;99.90;;;;;;12384993;28;20043;-38
2022/04/30 17:04:01;;;;;;;5.82;3.05;;;12.40;99.90;;;;;;12389004;28;20050;-37
2022/04/30 17:10:04;;;;;;;5.93;2.85;;;12.30;99.90;;;;;;12385443;28;20558;-36
2022/04/30 17:16:09;;;;;;;9.83;2.30;;;12.30;99.90;;;;;;12340362;28;20050;-36
2022/04/30 17:22:20;;;;;;;5.65;2.38;;;12.10;99.90;;;;;;12338005;28;20089;-38
2022/04/30 17:28:37;;;;;;;6.78;2.42;;;12.10;99.90;;;;;;12345958;28;20410;-38
2022/04/30 17:41:13;;;;;;;7.38;2.38;;;11.90;99.90;;;;;;12349286;28;20471;-36
2022/04/30 17:47:22;;;;;;;5.13;2.30;;;11.80;99.90;;;;;;12389450;28;20096;-36
2022/04/30 17:53:34;;;;;;;4.50;2.22;;;11.70;99.90;;;;;;12390023;28;20057;-37
2022/04/30 17:59:44;;;;;;;6.85;2.92;;;11.70;99.90;;;;;;12393434;28;20141;-36
2022/04/30 18:05:54;;;;;;;4.10;2.00;;;11.70;99.90;;;;;;12381824;28;20085;-36
2022/04/30 18:12:10;;;;;;;6.90;2.30;;;11.60;99.90;;;;;;12390429;28;20057;-36
2022/04/30 18:18:23;;;;;;;;;;;11.50;99.90;;;;;;12391414;28;20546;-38
2022/04/30 18:24:35;;;;;;;4.93;2.20;;;11.50;99.90;;;;;;12381663;28;20389;-37
2022/04/30 18:30:42;;;;;;;8.85;2.67;;;11.50;99.90;;;;;;12387093;28;20062;-36
2022/04/30 18:36:57;;;;;;;8.25;2.35;;;11.40;99.90;;;;;;12390519;28;20120;-38
2022/04/30 18:43:09;;;;;;;7.57;2.03;;;11.40;99.90;;;;;;12391873;28;20491;-36
2022/04/30 18:49:21;;;;;;;6.93;2.42;;;11.20;99.90;;;;;;12386614;28;20065;-36
2022/04/30 19:02:09;;;;;;;6.28;2.88;;;11.10;99.90;;;;;;12392097;28;20137;-36
2022/04/30 19:08:23;;;;;;;7.63;2.63;;;11.00;99.90;;;;;;12389736;28;20185;-37
2022/04/30 19:14:35;;;;;;;6.45;2.97;;;10.90;99.90;;;;;;12398451;28;20050;-36
2022/04/30 19:20:45;;;;;;;8.68;3.03;;;10.80;99.90;;;;;;12391237;28;20058;-36
2022/04/30 19:26:56;;;;;;;5.57;2.60;;;10.50;99.90;;;;;;12390534;28;20050;-37
2022/04/30 19:33:15;;;;;;;4.25;2.30;;;10.60;99.90;;;;;;12390713;28;20116;-38
2022/04/30 19:39:26;;;;;;;6.43;2.88;;;10.60;99.90;;;;;;12395445;28;20065;-37
2022/04/30 19:45:37;;;;;;;7.43;2.70;;;10.60;99.90;;;;;;12395522;28;20046;-37
2022/04/30 19:51:47;;;;;;;7.10;2.67;;;10.50;99.90;;;;;;12398431;28;20061;-36
2022/04/30 19:58:01;;;;;;;6.18;2.88;;;10.40;99.90;;;;;;12398428;28;20142;-37
2022/04/30 20:04:13;;;;;;;6.43;3.10;;;10.40;99.90;;;;;;12400932;28;20070;-37
2022/04/30 20:16:58;;;;;;;6.63;3.15;;;10.30;99.90;;;;;;12380247;28;20054;-37
2022/04/30 20:23:09;;;;;;;5.88;2.80;;;10.30;99.90;;;;;;12395310;28;20047;-37
2022/04/30 20:29:22;;;;;;;4.88;3.17;;;10.30;99.90;;;;;;12399399;28;20104;-36
2022/04/30 20:42:04;;;;;;;14.68;5.53;;;10.20;99.90;;;;;;12397159;28;20081;-37
2022/04/30 20:48:15;;;;;;;10.02;4.25;;;10.10;99.90;;;;;;12394656;28;20054;-36
2022/04/30 20:54:25;;;;;;;5.40;3.40;;;10.10;99.90;;;;;;12390521;28;20050;-36
2022/04/30 21:00:37;;;;;;;6.50;3.75;;;10.10;99.90;;;;;;12391287;28;20150;-37
2022/04/30 21:06:45;;;;;;;10.02;3.78;;;10.00;99.90;;;;;;12396040;28;20050;-37
2022/04/30 21:12:55;;;;;;;10.60;4.68;;;9.90;99.90;;;;;;12395976;28;20084;-36
2022/04/30 21:19:10;;;;;;;7.10;4.53;;;10.00;99.90;;;;;;12395484;28;20413;-36
2022/04/30 21:25:24;;;;;;;7.63;4.55;;;10.20;99.90;;;;;;12382708;28;20057;-38
2022/04/30 21:31:35;;;;;;;7.90;4.03;;;10.00;99.90;;;;;;12378618;28;20053;-37
2022/04/30 21:37:48;;;;;;;8.18;3.63;;;9.70;99.90;;;;;;12398152;28;20419;-37
2022/04/30 21:43:57;;;;;;;8.05;3.58;;;9.70;99.90;;;;;;12392644;28;20054;-37
2022/04/30 21:50:09;;;;;;;6.22;3.30;;;9.60;99.90;;;;;;12394299;28;20400;-37
2022/04/30 22:02:48;;;;;;;6.25;3.17;;;9.70;99.90;;;;;;12391448;28;20061;-38
2022/04/30 22:08:59;;;;;;;6.97;2.97;;;9.90;99.90;;;;;;12392548;28;20133;-37
2022/04/30 22:15:09;;;;;;;5.05;2.92;;;9.90;99.90;;;;;;12387060;28;20053;-36
2022/04/30 22:21:17;;;;;;;4.65;2.53;;;9.90;99.90;;;;;;12392084;28;20414;-37
2022/04/30 22:27:28;;;;;;;5.68;2.60;;;9.90;99.90;;;;;;12392239;28;20054;-37
2022/04/30 22:33:40;;;;;;;4.38;2.45;;;9.80;99.90;;;;;;12391657;28;20050;-37
2022/04/30 22:46:17;;;;;;;6.15;2.60;;;9.80;99.90;;;;;;12391295;28;20055;-37
2022/04/30 22:52:27;;;;;;;6.90;2.90;;;9.70;99.90;;;;;;12389799;28;20054;-36
2022/04/30 22:58:36;;;;;;;4.32;2.72;;;9.60;99.90;;;;;;12388568;28;20061;-38
2022/04/30 23:04:45;;;;;;;4.45;2.65;;;9.70;99.90;;;;;;12384428;28;20042;-36
2022/04/30 23:10:55;;;;;;;4.32;2.50;;;9.60;99.90;;;;;;12392530;28;20065;-38
2022/04/30 23:17:08;;;;;;;5.80;2.83;;;9.70;99.90;;;;;;12397281;28;20039;-36
2022/04/30 23:23:17;;;;;;;4.63;2.88;;;9.60;99.90;;;;;;12401155;28;20046;-37
2022/04/30 23:29:40;;;;;;;4.55;2.70;;;9.70;99.90;;;;;;12400769;28;20558;-37
2022/04/30 23:35:51;;;;;;;5.50;3.00;;;9.50;99.90;;;;;;12399623;28;20050;-37
2022/04/30 23:42:00;;;;;;;5.57;2.88;;;9.50;99.90;;;;;;12398863;28;20077;-36
2022/04/30 23:48:10;;;;;;;5.05;3.00;;;9.50;99.90;;;;;;12400185;28;20054;-36
2022/04/30 23:54:22;;;;;;;7.22;2.60;;;9.40;99.90;;;;;;12392184;28;20042;-37
